Time;durP1;ratioP1;P1;durP2;ratioP2;P2;SDS_P1;SDS_P2;PMS_P1;PMS_P2;Temp;Humidity;BMP_temperature;BMP_pressure;BME280_temperature;BME280_humidity;BME280_pressure;Samples;Min_cycle;Max_cycle;Signal;HPM_P1;HPM_P2
2022/07/29 00:02:10;;;;;;;0.00;0.00;;;;;;;;;;5038709;28;20052;-62
2022/07/29 00:04:35;;;;;;;0.00;0.00;;;;;;;;;;5031961;28;20062;-62
2022/07/29 00:07:00;;;;;;;0.00;0.00;;;;;;;;;;5027878;28;20033;-62
2022/07/29 00:09:26;;;;;;;0.00;0.00;;;;;;;;;;5027982;28;20036;-62
2022/07/29 00:11:51;;;;;;;0.00;0.00;;;;;;;;;;5029073;28;20022;-62
2022/07/29 00:14:16;;;;;;;0.00;0.00;;;;;;;;;;5028819;28;20040;-62
2022/07/29 00:16:41;;;;;;;0.00;0.00;;;;;;;;;;5029007;28;20033;-62
2022/07/29 00:19:07;;;;;;;0.00;0.00;;;;;;;;;;5028610;28;20040;-62
2022/07/29 00:21:34;;;;;;;0.00;0.00;;;;;;;;;;5029277;28;20029;-62
2022/07/29 00:24:02;;;;;;;0.00;0.00;;;;;;;;;;5029092;28;20470;-62
2022/07/29 00:26:31;;;;;;;0.00;0.00;;;;;;;;;;5028862;28;20033;-62
2022/07/29 00:28:56;;;;;;;0.08;0.08;;;;;;;;;;5028983;28;20033;-62
2022/07/29 00:31:21;;;;;;;0.00;0.00;;;;;;;;;;5028374;28;20397;-62
2022/07/29 00:33:47;;;;;;;0.77;0.77;;;;;;;;;;5022229;28;20030;-62
2022/07/29 00:36:31;;;;;;;0.00;0.00;;;;;;;;;;5018465;28;20260;-62
2022/07/29 00:38:56;;;;;;;0.00;0.00;;;;;;;;;;5020796;28;20021;-62
2022/07/29 00:41:21;;;;;;;0.47;0.20;;;;;;;;;;5027688;28;20040;-62
2022/07/29 00:43:46;;;;;;;0.00;0.00;;;;;;;;;;5028915;28;20032;-62
2022/07/29 00:46:12;;;;;;;0.20;0.20;;;;;;;;;;5028264;28;20362;-62
2022/07/29 00:48:37;;;;;;;0.00;0.00;;;;;;;;;;5028566;28;20032;-63
2022/07/29 00:51:03;;;;;;;0.00;0.00;;;;;;;;;;5026365;28;20566;-63
2022/07/29 00:53:29;;;;;;;0.00;0.00;;;;;;;;;;5018513;28;20017;-63
2022/07/29 00:55:55;;;;;;;0.00;0.00;;;;;;;;;;5018888;28;20014;-63
2022/07/29 00:58:20;;;;;;;0.00;0.00;;;;;;;;;;5018170;28;20414;-63
2022/07/29 01:00:45;;;;;;;0.00;0.00;;;;;;;;;;5018261;28;20045;-63
2022/07/29 01:03:11;;;;;;;0.30;0.30;;;;;;;;;;5017673;28;20030;-63
2022/07/29 01:05:36;;;;;;;0.50;0.50;;;;;;;;;;5025949;28;20045;-63
2022/07/29 01:08:01;;;;;;;0.52;0.50;;;;;;;;;;5023308;28;20368;-63
2022/07/29 01:10:27;;;;;;;0.45;0.45;;;;;;;;;;5027839;28;20026;-64
2022/07/29 01:12:54;;;;;;;0.40;0.30;;;;;;;;;;5024721;28;20056;-61
2022/07/29 01:15:19;;;;;;;4.85;0.82;;;;;;;;;;5027860;28;20386;-63
2022/07/29 01:17:44;;;;;;;0.43;0.38;;;;;;;;;;5027355;28;20013;-63
2022/07/29 01:20:13;;;;;;;0.00;0.00;;;;;;;;;;5028285;28;20697;-63
2022/07/29 01:22:57;;;;;;;0.00;0.00;;;;;;;;;;5017583;28;20028;-62
2022/07/29 01:25:32;;;;;;;1.38;0.55;;;;;;;;;;5018066;28;20044;-63
2022/07/29 01:28:00;;;;;;;0.00;0.00;;;;;;;;;;5009106;28;20017;-63
2022/07/29 01:30:26;;;;;;;0.60;0.60;;;;;;;;;;5011971;28;20033;-63
2022/07/29 01:32:54;;;;;;;0.00;0.00;;;;;;;;;;5009730;28;20692;-63
2022/07/29 01:35:24;;;;;;;1.45;0.68;;;;;;;;;;5025657;28;20061;-62
2022/07/29 01:37:56;;;;;;;0.00;0.00;;;;;;;;;;5038550;28;20409;-62
2022/07/29 01:40:27;;;;;;;0.13;0.13;;;;;;;;;;5027527;28;20132;-62
2022/07/29 01:42:54;;;;;;;0.15;0.15;;;;;;;;;;5028155;28;20072;-62
2022/07/29 01:45:21;;;;;;;3.97;0.70;;;;;;;;;;5025092;28;20083;-62
2022/07/29 01:47:52;;;;;;;0.98;0.98;;;;;;;;;;5028042;28;20025;-62
2022/07/29 01:50:19;;;;;;;0.40;0.40;;;;;;;;;;5026963;28;20017;-63
2022/07/29 01:52:52;;;;;;;0.00;0.00;;;;;;;;;;5029436;28;20022;-63
2022/07/29 01:55:20;;;;;;;1.70;1.58;;;;;;;;;;5030005;28;20029;-63
2022/07/29 01:57:46;;;;;;;0.20;0.20;;;;;;;;;;5032270;28;20024;-62
2022/07/29 02:00:12;;;;;;;0.00;0.00;;;;;;;;;;5031800;28;20112;-63
2022/07/29 02:02:38;;;;;;;0.00;0.00;;;;;;;;;;5023443;28;20152;-63
2022/07/29 02:05:05;;;;;;;0.38;0.38;;;;;;;;;;5039692;28;20106;-63
2022/07/29 02:07:31;;;;;;;0.00;0.00;;;;;;;;;;5043005;28;20017;-62
2022/07/29 02:09:57;;;;;;;0.75;0.22;;;;;;;;;;5039973;28;20488;-61
2022/07/29 02:12:23;;;;;;;0.10;0.10;;;;;;;;;;5029438;28;21775;-62
2022/07/29 02:14:51;;;;;;;0.30;0.30;;;;;;;;;;5040667;28;20082;-62
2022/07/29 02:17:23;;;;;;;0.00;0.00;;;;;;;;;;5031226;28;20426;-63
2022/07/29 02:19:49;;;;;;;0.00;0.00;;;;;;;;;;5040808;28;20067;-62
2022/07/29 02:22:14;;;;;;;0.40;0.40;;;;;;;;;;5030710;28;20106;-62
2022/07/29 02:24:40;;;;;;;0.00;0.00;;;;;;;;;;5031262;28;20552;-62
2022/07/29 02:27:07;;;;;;;0.00;0.00;;;;;;;;;;5036410;28;20025;-62
2022/07/29 02:29:32;;;;;;;0.00;0.00;;;;;;;;;;5040401;28;20484;-62
2022/07/29 02:31:58;;;;;;;0.03;0.03;;;;;;;;;;5040752;28;20031;-62
2022/07/29 02:34:24;;;;;;;0.00;0.00;;;;;;;;;;5043653;28;20162;-62
2022/07/29 02:36:50;;;;;;;0.00;0.00;;;;;;;;;;5032388;28;20096;-62
2022/07/29 02:39:15;;;;;;;0.00;0.00;;;;;;;;;;5032214;28;20440;-62
2022/07/29 02:41:43;;;;;;;0.08;0.08;;;;;;;;;;5041098;28;20028;-62
2022/07/29 02:44:10;;;;;;;0.00;0.00;;;;;;;;;;5040673;28;20028;-62
2022/07/29 02:46:36;;;;;;;0.00;0.00;;;;;;;;;;5040934;28;20021;-62
2022/07/29 02:49:07;;;;;;;0.00;0.00;;;;;;;;;;5040445;28;20474;-62
2022/07/29 02:51:34;;;;;;;0.00;0.00;;;;;;;;;;5040315;28;20448;-63
2022/07/29 02:54:01;;;;;;;0.00;0.00;;;;;;;;;;5039683;28;20017;-63
2022/07/29 02:56:28;;;;;;;0.00;0.00;;;;;;;;;;5039439;28;20028;-62
2022/07/29 02:58:58;;;;;;;0.00;0.00;;;;;;;;;;5039512;28;20020;-62
2022/07/29 03:01:24;;;;;;;0.00;0.00;;;;;;;;;;5040194;28;20080;-63
2022/07/29 03:03:51;;;;;;;0.00;0.00;;;;;;;;;;5043090;28;20032;-63
2022/07/29 03:06:17;;;;;;;0.00;0.00;;;;;;;;;;5040412;28;20048;-62
2022/07/29 03:08:43;;;;;;;0.15;0.15;;;;;;;;;;5041708;28;20025;-62
2022/07/29 03:11:09;;;;;;;0.05;0.05;;;;;;;;;;5040472;28;20055;-62
2022/07/29 03:13:36;;;;;;;0.00;0.00;;;;;;;;;;5040325;28;20050;-62
2022/07/29 03:16:02;;;;;;;0.00;0.00;;;;;;;;;;5030969;28;20075;-62
2022/07/29 03:18:27;;;;;;;0.00;0.00;;;;;;;;;;5040131;28;20017;-62
2022/07/29 03:20:53;;;;;;;0.00;0.00;;;;;;;;;;5039995;28;20100;-62
2022/07/29 03:23:23;;;;;;;0.00;0.00;;;;;;;;;;5039609;28;20060;-63
2022/07/29 03:25:49;;;;;;;0.00;0.00;;;;;;;;;;5039680;28;20030;-63
2022/07/29 03:28:14;;;;;;;0.00;0.00;;;;;;;;;;5039219;28;20017;-62
2022/07/29 03:30:40;;;;;;;0.00;0.00;;;;;;;;;;5038921;28;20078;-63
2022/07/29 03:33:05;;;;;;;0.00;0.00;;;;;;;;;;5043692;28;20021;-62
2022/07/29 03:35:31;;;;;;;0.00;0.00;;;;;;;;;;5040022;28;20044;-62
2022/07/29 03:37:56;;;;;;;0.00;0.00;;;;;;;;;;5040105;28;20450;-62
2022/07/29 03:40:25;;;;;;;0.52;0.45;;;;;;;;;;5039189;28;20104;-62
2022/07/29 03:42:51;;;;;;;0.00;0.00;;;;;;;;;;5039736;28;20025;-62
2022/07/29 03:45:18;;;;;;;0.00;0.00;;;;;;;;;;5038956;28;20847;-62
2022/07/29 03:47:47;;;;;;;0.00;0.00;;;;;;;;;;5039806;28;20056;-62
2022/07/29 03:50:13;;;;;;;0.00;0.00;;;;;;;;;;5039336;28;20055;-62
2022/07/29 03:52:39;;;;;;;0.00;0.00;;;;;;;;;;5039424;28;20030;-64
2022/07/29 03:55:04;;;;;;;0.00;0.00;;;;;;;;;;5039444;28;20075;-62
2022/07/29 03:57:30;;;;;;;0.00;0.00;;;;;;;;;;5038517;28;20021;-62
2022/07/29 03:59:56;;;;;;;0.00;0.00;;;;;;;;;;5041587;28;20520;-61
2022/07/29 04:02:22;;;;;;;0.00;0.00;;;;;;;;;;5041109;28;20082;-62
2022/07/29 04:04:50;;;;;;;0.00;0.00;;;;;;;;;;5038855;28;20065;-63
2022/07/29 04:07:16;;;;;;;0.00;0.00;;;;;;;;;;5038637;28;20029;-62
2022/07/29 04:09:41;;;;;;;0.00;0.00;;;;;;;;;;5039232;28;20480;-62
2022/07/29 04:12:07;;;;;;;0.00;0.00;;;;;;;;;;5039475;28;20099;-62
2022/07/29 04:14:32;;;;;;;0.00;0.00;;;;;;;;;;5038369;28;20555;-63
2022/07/29 04:16:57;;;;;;;0.25;0.22;;;;;;;;;;5039203;28;20608;-63
2022/07/29 04:19:23;;;;;;;0.95;0.93;;;;;;;;;;5038262;28;20493;-63
2022/07/29 04:21:48;;;;;;;0.13;0.13;;;;;;;;;;5038821;28;20097;-63
2022/07/29 04:24:13;;;;;;;0.00;0.00;;;;;;;;;;5038359;28;20133;-63
2022/07/29 04:26:38;;;;;;;0.00;0.00;;;;;;;;;;5023856;28;20049;-63
2022/07/29 04:29:04;;;;;;;0.00;0.00;;;;;;;;;;5039719;28;20033;-63
2022/07/29 04:31:29;;;;;;;0.00;0.00;;;;;;;;;;5039890;28;20772;-63
2022/07/29 04:33:54;;;;;;;0.43;0.43;;;;;;;;;;5037922;28;20143;-63
2022/07/29 04:36:22;;;;;;;1.70;1.60;;;;;;;;;;5038772;28;20251;-62
2022/07/29 04:38:47;;;;;;;0.00;0.00;;;;;;;;;;5039141;28;20274;-62
2022/07/29 04:41:13;;;;;;;0.00;0.00;;;;;;;;;;5038425;28;20048;-62
2022/07/29 04:43:38;;;;;;;0.05;0.05;;;;;;;;;;5038222;28;20022;-62
2022/07/29 04:46:05;;;;;;;0.00;0.00;;;;;;;;;;5038298;28;20409;-62
2022/07/29 04:48:30;;;;;;;0.00;0.00;;;;;;;;;;5038472;28;20029;-62
2022/07/29 04:50:56;;;;;;;0.00;0.00;;;;;;;;;;5028750;28;20028;-62
2022/07/29 04:53:21;;;;;;;0.00;0.00;;;;;;;;;;5038092;28;20029;-62
2022/07/29 04:55:46;;;;;;;0.00;0.00;;;;;;;;;;5038824;28;20030;-62
2022/07/29 04:58:12;;;;;;;0.10;0.10;;;;;;;;;;5040059;28;20279;-62
2022/07/29 05:00:37;;;;;;;0.00;0.00;;;;;;;;;;5038358;28;20441;-63
2022/07/29 05:03:03;;;;;;;0.55;0.55;;;;;;;;;;5038211;28;20271;-63
2022/07/29 05:05:28;;;;;;;0.00;0.00;;;;;;;;;;5037699;28;20498;-63
2022/07/29 05:07:53;;;;;;;0.00;0.00;;;;;;;;;;5038314;28;20104;-62
2022/07/29 05:10:19;;;;;;;0.00;0.00;;;;;;;;;;5038147;28;20025;-63
2022/07/29 05:12:44;;;;;;;0.00;0.00;;;;;;;;;;5038356;28;20056;-63
2022/07/29 05:15:09;;;;;;;0.00;0.00;;;;;;;;;;5038833;28;20028;-62
2022/07/29 05:17:34;;;;;;;0.00;0.00;;;;;;;;;;5037631;28;20571;-63
2022/07/29 05:20:00;;;;;;;0.00;0.00;;;;;;;;;;5038259;28;20889;-63
2022/07/29 05:22:25;;;;;;;5.78;0.47;;;;;;;;;;5038782;28;20465;-63
2022/07/29 05:24:50;;;;;;;0.00;0.00;;;;;;;;;;5038785;28;20024;-63
2022/07/29 05:27:15;;;;;;;0.00;0.00;;;;;;;;;;5042208;28;20457;-63
2022/07/29 05:29:40;;;;;;;0.00;0.00;;;;;;;;;;5042880;28;20280;-63
2022/07/29 05:32:06;;;;;;;0.00;0.00;;;;;;;;;;5039776;28;20071;-63
2022/07/29 05:34:31;;;;;;;0.00;0.00;;;;;;;;;;5041499;28;20055;-63
2022/07/29 05:36:56;;;;;;;0.00;0.00;;;;;;;;;;5039721;28;20449;-64
2022/07/29 05:39:22;;;;;;;0.32;0.22;;;;;;;;;;5040846;28;20026;-63
2022/07/29 05:41:47;;;;;;;0.00;0.00;;;;;;;;;;5042147;28;20024;-64
2022/07/29 05:44:13;;;;;;;2.83;2.10;;;;;;;;;;5042643;28;20174;-64
2022/07/29 05:46:38;;;;;;;0.00;0.00;;;;;;;;;;5041376;28;20351;-64
2022/07/29 05:49:04;;;;;;;0.00;0.00;;;;;;;;;;5041416;28;20424;-64
2022/07/29 05:51:30;;;;;;;0.10;0.10;;;;;;;;;;5042566;28;20017;-64
2022/07/29 05:53:55;;;;;;;0.05;0.05;;;;;;;;;;5041639;28;20064;-64
2022/07/29 05:56:20;;;;;;;0.55;0.55;;;;;;;;;;5041514;28;20029;-64
2022/07/29 05:58:45;;;;;;;0.00;0.00;;;;;;;;;;5040646;28;20036;-64
2022/07/29 06:01:10;;;;;;;0.00;0.00;;;;;;;;;;5040562;28;20282;-64
2022/07/29 06:03:37;;;;;;;0.83;0.67;;;;;;;;;;5040269;28;20032;-64
2022/07/29 06:06:03;;;;;;;1.90;1.45;;;;;;;;;;5040043;28;20279;-63
2022/07/29 06:08:28;;;;;;;0.00;0.00;;;;;;;;;;5040316;28;20013;-64
2022/07/29 06:10:53;;;;;;;0.00;0.00;;;;;;;;;;5042853;28;20028;-63
2022/07/29 06:13:18;;;;;;;0.33;0.33;;;;;;;;;;5043029;28;20029;-64
2022/07/29 06:15:43;;;;;;;0.00;0.00;;;;;;;;;;5030896;28;20296;-64
2022/07/29 06:18:09;;;;;;;0.00;0.00;;;;;;;;;;5040380;28;20040;-64
2022/07/29 06:20:35;;;;;;;0.00;0.00;;;;;;;;;;5039642;28;20021;-64
2022/07/29 06:23:00;;;;;;;0.00;0.00;;;;;;;;;;5040231;28;20055;-64
2022/07/29 06:25:25;;;;;;;0.00;0.00;;;;;;;;;;5040654;28;20029;-64
2022/07/29 06:27:52;;;;;;;0.00;0.00;;;;;;;;;;5041068;28;20060;-64
2022/07/29 06:30:17;;;;;;;0.10;0.10;;;;;;;;;;5040184;28;20093;-64
2022/07/29 06:32:42;;;;;;;0.10;0.10;;;;;;;;;;5031608;28;20684;-64
2022/07/29 06:35:07;;;;;;;0.10;0.10;;;;;;;;;;5040530;28;20025;-64
2022/07/29 06:37:33;;;;;;;0.10;0.10;;;;;;;;;;5039006;28;20737;-64
2022/07/29 06:42:42;;;;;;;0.08;0.08;;;;;;;;;;5034127;28;20074;-64
2022/07/29 06:45:07;;;;;;;0.10;0.10;;;;;;;;;;5036757;28;20111;-65
2022/07/29 06:47:33;;;;;;;1.02;0.63;;;;;;;;;;5035640;28;20433;-64
2022/07/29 06:49:58;;;;;;;0.57;0.57;;;;;;;;;;5030852;28;20033;-64
2022/07/29 06:52:25;;;;;;;0.80;0.80;;;;;;;;;;5032959;28;20079;-63
2022/07/29 06:54:50;;;;;;;0.05;0.05;;;;;;;;;;5038058;28;20021;-64
2022/07/29 06:57:15;;;;;;;0.00;0.00;;;;;;;;;;5040307;28;20021;-63
2022/07/29 06:59:40;;;;;;;0.00;0.00;;;;;;;;;;5040285;28;20807;-64
2022/07/29 07:02:06;;;;;;;0.00;0.00;;;;;;;;;;5032493;28;20350;-64
2022/07/29 07:04:31;;;;;;;0.35;0.35;;;;;;;;;;5038444;28;20375;-64
2022/07/29 07:06:57;;;;;;;0.32;0.32;;;;;;;;;;5040650;28;20571;-63
2022/07/29 07:09:22;;;;;;;0.00;0.00;;;;;;;;;;5039980;28;20029;-64
2022/07/29 07:11:48;;;;;;;0.20;0.20;;;;;;;;;;5040220;28;20029;-64
2022/07/29 07:14:13;;;;;;;0.25;0.25;;;;;;;;;;5040385;28;20029;-64
2022/07/29 07:16:38;;;;;;;0.20;0.20;;;;;;;;;;5039700;28;20079;-64
2022/07/29 07:19:04;;;;;;;0.00;0.00;;;;;;;;;;5040496;28;20469;-64
2022/07/29 07:21:29;;;;;;;0.00;0.00;;;;;;;;;;5040403;28;20021;-64
2022/07/29 07:23:54;;;;;;;2.00;0.57;;;;;;;;;;5042215;28;20033;-64
2022/07/29 07:26:20;;;;;;;1.45;1.45;;;;;;;;;;5039271;28;20861;-64
2022/07/29 07:28:45;;;;;;;0.00;0.00;;;;;;;;;;5039279;28;20470;-64
2022/07/29 07:31:10;;;;;;;0.00;0.00;;;;;;;;;;5040078;28;20025;-64
2022/07/29 07:33:35;;;;;;;3.20;0.47;;;;;;;;;;5041024;28;20266;-64
2022/07/29 07:36:01;;;;;;;0.00;0.00;;;;;;;;;;5043732;28;20454;-65
2022/07/29 07:38:26;;;;;;;0.00;0.00;;;;;;;;;;5039528;28;20063;-65
2022/07/29 07:40:51;;;;;;;0.00;0.00;;;;;;;;;;5039776;28;20009;-65
2022/07/29 07:43:16;;;;;;;0.00;0.00;;;;;;;;;;5039920;28;20117;-65
2022/07/29 07:45:42;;;;;;;0.00;0.00;;;;;;;;;;5038722;28;20110;-65
2022/07/29 07:48:09;;;;;;;0.00;0.00;;;;;;;;;;5039377;28;20029;-66
2022/07/29 07:50:35;;;;;;;0.00;0.00;;;;;;;;;;5039933;28;20025;-66
2022/07/29 07:53:01;;;;;;;0.00;0.00;;;;;;;;;;5040453;28;20102;-66
2022/07/29 07:55:27;;;;;;;0.13;0.13;;;;;;;;;;5039779;28;20024;-65
2022/07/29 07:57:52;;;;;;;0.00;0.00;;;;;;;;;;5039581;28;20025;-66
2022/07/29 08:00:18;;;;;;;0.00;0.00;;;;;;;;;;5041419;28;20477;-65
2022/07/29 08:02:44;;;;;;;1.17;0.38;;;;;;;;;;5042307;28;20017;-65
2022/07/29 08:05:11;;;;;;;0.00;0.00;;;;;;;;;;5028730;28;20053;-65
2022/07/29 08:07:36;;;;;;;0.00;0.00;;;;;;;;;;5038511;28;20524;-65
2022/07/29 08:10:02;;;;;;;0.13;0.13;;;;;;;;;;5039080;28;20067;-65
2022/07/29 08:12:30;;;;;;;0.00;0.00;;;;;;;;;;5038620;28;20017;-65
2022/07/29 08:14:55;;;;;;;0.00;0.00;;;;;;;;;;5039302;28;20098;-65
2022/07/29 08:17:21;;;;;;;0.00;0.00;;;;;;;;;;5038626;28;20060;-65
2022/07/29 08:19:48;;;;;;;0.57;0.57;;;;;;;;;;5040555;28;20093;-65
2022/07/29 08:22:13;;;;;;;0.00;0.00;;;;;;;;;;5039645;28;20894;-65
2022/07/29 08:24:46;;;;;;;0.00;0.00;;;;;;;;;;5038174;28;20099;-64
2022/07/29 08:27:12;;;;;;;0.10;0.10;;;;;;;;;;5038820;28;20252;-64
2022/07/29 08:29:38;;;;;;;4.10;3.72;;;;;;;;;;5038238;28;20036;-64
2022/07/29 08:32:03;;;;;;;0.13;0.13;;;;;;;;;;5038552;28;20040;-64
2022/07/29 08:34:29;;;;;;;1.17;1.17;;;;;;;;;;5038083;28;20500;-64
2022/07/29 08:36:55;;;;;;;0.00;0.00;;;;;;;;;;5038804;28;20013;-64
2022/07/29 08:39:20;;;;;;;0.85;0.85;;;;;;;;;;5038972;28;20082;-64
2022/07/29 08:41:47;;;;;;;0.00;0.00;;;;;;;;;;5038400;28;20025;-64
2022/07/29 08:44:12;;;;;;;0.50;0.47;;;;;;;;;;5037592;28;20072;-64
2022/07/29 08:46:38;;;;;;;0.00;0.00;;;;;;;;;;5037230;28;20029;-65
2022/07/29 08:49:04;;;;;;;0.00;0.00;;;;;;;;;;5038493;28;20021;-64
2022/07/29 08:51:35;;;;;;;0.98;0.45;;;;;;;;;;5038844;28;20418;-65
2022/07/29 08:54:01;;;;;;;0.00;0.00;;;;;;;;;;5038044;28;20057;-64
2022/07/29 08:56:26;;;;;;;0.45;0.45;;;;;;;;;;5038583;28;20056;-64
2022/07/29 08:58:52;;;;;;;0.00;0.00;;;;;;;;;;5038229;28;20083;-64
2022/07/29 09:01:21;;;;;;;1.27;0.30;;;;;;;;;;5036917;28;20017;-64
2022/07/29 09:03:46;;;;;;;0.00;0.00;;;;;;;;;;5038142;28;20028;-64
2022/07/29 09:06:14;;;;;;;0.00;0.00;;;;;;;;;;5037011;28;20013;-64
2022/07/29 09:08:40;;;;;;;0.00;0.00;;;;;;;;;;5037991;28;20017;-64
2022/07/29 09:11:07;;;;;;;0.00;0.00;;;;;;;;;;5037855;28;20031;-65
2022/07/29 09:13:32;;;;;;;4.40;3.20;;;;;;;;;;5037541;28;20028;-64
2022/07/29 09:15:57;;;;;;;0.00;0.00;;;;;;;;;;5038260;28;20776;-64
2022/07/29 09:18:36;;;;;;;0.00;0.00;;;;;;;;;;5040158;28;20537;-64
2022/07/29 09:24:18;;;;;;;0.32;0.17;;;;;;;;;;5037208;28;20033;-64
2022/07/29 09:26:44;;;;;;;0.13;0.13;;;;;;;;;;4986798;28;20481;-64
2022/07/29 09:29:10;;;;;;;0.00;0.00;;;;;;;;;;5038193;28;20037;-64
2022/07/29 09:31:38;;;;;;;0.28;0.28;;;;;;;;;;5037415;28;20466;-64
2022/07/29 09:34:04;;;;;;;0.00;0.00;;;;;;;;;;5037797;28;20108;-64
2022/07/29 09:36:29;;;;;;;0.00;0.00;;;;;;;;;;5037418;28;20577;-64
2022/07/29 09:39:01;;;;;;;0.10;0.10;;;;;;;;;;5036818;28;20466;-63
2022/07/29 09:41:27;;;;;;;0.00;0.00;;;;;;;;;;5037932;28;20754;-65
2022/07/29 09:43:59;;;;;;;0.00;0.00;;;;;;;;;;5038320;28;20024;-65
2022/07/29 09:46:25;;;;;;;0.00;0.00;;;;;;;;;;5040224;28;20047;-65
2022/07/29 09:49:10;;;;;;;0.00;0.00;;;;;;;;;;5039285;28;20104;-64
2022/07/29 09:51:35;;;;;;;0.00;0.00;;;;;;;;;;5037736;28;20469;-65
2022/07/29 09:54:04;;;;;;;0.00;0.00;;;;;;;;;;5037414;28;20033;-64
2022/07/29 09:56:42;;;;;;;0.00;0.00;;;;;;;;;;5037571;28;20024;-64
2022/07/29 09:59:08;;;;;;;0.00;0.00;;;;;;;;;;5038162;28;20017;-64
2022/07/29 10:01:34;;;;;;;1.05;1.00;;;;;;;;;;5037677;28;20044;-65
2022/07/29 10:04:00;;;;;;;0.00;0.00;;;;;;;;;;5037740;28;20045;-65
2022/07/29 10:06:25;;;;;;;0.00;0.00;;;;;;;;;;5037512;28;20025;-65
2022/07/29 10:08:50;;;;;;;0.15;0.15;;;;;;;;;;5038350;28;20033;-65
2022/07/29 10:11:16;;;;;;;0.30;0.30;;;;;;;;;;5037155;28;20032;-64
2022/07/29 10:13:44;;;;;;;0.10;0.10;;;;;;;;;;5038746;28;20017;-64
2022/07/29 10:16:09;;;;;;;0.00;0.00;;;;;;;;;;5043660;28;20025;-64
2022/07/29 10:18:35;;;;;;;0.65;0.65;;;;;;;;;;5040575;28;20477;-64
2022/07/29 10:21:00;;;;;;;0.98;0.55;;;;;;;;;;5040810;28;20048;-65
2022/07/29 10:23:26;;;;;;;0.68;0.60;;;;;;;;;;5040772;28;20033;-64
2022/07/29 10:25:52;;;;;;;0.00;0.00;;;;;;;;;;5041453;28;20047;-64
2022/07/29 10:28:17;;;;;;;0.00;0.00;;;;;;;;;;5040610;28;20377;-64
2022/07/29 10:30:44;;;;;;;0.00;0.00;;;;;;;;;;5040921;28;20080;-64
2022/07/29 10:33:29;;;;;;;0.00;0.00;;;;;;;;;;5041150;28;20094;-64
2022/07/29 10:36:04;;;;;;;0.10;0.10;;;;;;;;;;5040304;28;20012;-65
2022/07/29 10:38:44;;;;;;;0.00;0.00;;;;;;;;;;5040910;28;20036;-65
2022/07/29 10:41:28;;;;;;;0.00;0.00;;;;;;;;;;5041286;28;20150;-65
2022/07/29 10:43:55;;;;;;;0.00;0.00;;;;;;;;;;5041697;28;20100;-64
2022/07/29 10:46:21;;;;;;;0.13;0.13;;;;;;;;;;5040451;28;20029;-65
2022/07/29 10:49:09;;;;;;;0.00;0.00;;;;;;;;;;5040139;28;20148;-66
2022/07/29 10:51:54;;;;;;;15.45;0.30;;;;;;;;;;5033896;28;20029;-63
2022/07/29 10:54:37;;;;;;;0.43;0.43;;;;;;;;;;5038694;28;20381;-63
2022/07/29 10:57:14;;;;;;;0.00;0.00;;;;;;;;;;5039532;28;20470;-63
2022/07/29 10:59:40;;;;;;;0.20;0.20;;;;;;;;;;5040246;28;20016;-63
2022/07/29 11:02:24;;;;;;;0.22;0.22;;;;;;;;;;5039352;28;20673;-63
2022/07/29 11:04:52;;;;;;;0.00;0.00;;;;;;;;;;5039699;28;20152;-63
2022/07/29 11:07:17;;;;;;;0.00;0.00;;;;;;;;;;5029164;28;20021;-63
2022/07/29 11:09:45;;;;;;;0.00;0.00;;;;;;;;;;5039627;28;20752;-62
2022/07/29 11:12:29;;;;;;;0.57;0.57;;;;;;;;;;5041446;28;20279;-63
2022/07/29 11:14:55;;;;;;;0.35;0.35;;;;;;;;;;5042026;28;20039;-63
2022/07/29 11:17:20;;;;;;;0.10;0.10;;;;;;;;;;5040435;28;20104;-64
2022/07/29 11:19:46;;;;;;;0.10;0.10;;;;;;;;;;5040408;28;20108;-63
2022/07/29 11:22:30;;;;;;;0.30;0.30;;;;;;;;;;5041104;28;20023;-64
2022/07/29 11:25:15;;;;;;;0.32;0.32;;;;;;;;;;5039807;28;20047;-61
2022/07/29 11:27:40;;;;;;;0.10;0.10;;;;;;;;;;5039644;28;21333;-63
2022/07/29 11:30:06;;;;;;;0.20;0.20;;;;;;;;;;5040100;28;20112;-63
2022/07/29 11:32:38;;;;;;;0.13;0.13;;;;;;;;;;5039675;28;20084;-63
2022/07/29 11:35:10;;;;;;;0.47;0.43;;;;;;;;;;5038327;28;20038;-63
2022/07/29 11:37:35;;;;;;;0.00;0.00;;;;;;;;;;5038189;28;20022;-63
2022/07/29 11:40:03;;;;;;;0.30;0.30;;;;;;;;;;5039471;28;20029;-63
2022/07/29 11:42:28;;;;;;;0.00;0.00;;;;;;;;;;5041055;28;20044;-63
2022/07/29 11:44:53;;;;;;;0.30;0.30;;;;;;;;;;5039192;28;20056;-63
2022/07/29 11:47:20;;;;;;;0.00;0.00;;;;;;;;;;5039940;28;20037;-63
2022/07/29 11:49:45;;;;;;;0.00;0.00;;;;;;;;;;5038977;28;20267;-63
2022/07/29 11:52:11;;;;;;;0.10;0.10;;;;;;;;;;5039073;28;20025;-63
2022/07/29 11:54:39;;;;;;;0.32;0.32;;;;;;;;;;5029566;28;20374;-63
2022/07/29 11:57:06;;;;;;;0.20;0.20;;;;;;;;;;5039478;28;20112;-63
2022/07/29 11:59:31;;;;;;;0.35;0.35;;;;;;;;;;5039329;28;20033;-63
2022/07/29 12:01:57;;;;;;;0.10;0.10;;;;;;;;;;5039330;28;20017;-63
2022/07/29 12:04:23;;;;;;;0.00;0.00;;;;;;;;;;5039063;28;20752;-63
2022/07/29 12:06:49;;;;;;;1.17;1.17;;;;;;;;;;5039089;28;20025;-63
2022/07/29 12:09:14;;;;;;;1.20;0.75;;;;;;;;;;5039228;28;20458;-61
2022/07/29 12:11:40;;;;;;;0.35;0.35;;;;;;;;;;5041165;28;20035;-61
2022/07/29 12:14:05;;;;;;;1.02;0.95;;;;;;;;;;5039169;28;20492;-62
2022/07/29 12:16:39;;;;;;;0.10;0.10;;;;;;;;;;5038740;28;20105;-62
2022/07/29 12:19:04;;;;;;;0.63;0.63;;;;;;;;;;5038797;28;20279;-62
2022/07/29 12:21:49;;;;;;;0.00;0.00;;;;;;;;;;5038508;28;20060;-62
2022/07/29 12:24:17;;;;;;;0.00;0.00;;;;;;;;;;5037871;28;20037;-62
2022/07/29 12:26:52;;;;;;;0.00;0.00;;;;;;;;;;5036868;28;20087;-64
2022/07/29 12:29:17;;;;;;;0.00;0.00;;;;;;;;;;5039744;28;20744;-63
2022/07/29 12:31:43;;;;;;;0.00;0.00;;;;;;;;;;5038005;28;20027;-62
2022/07/29 12:34:09;;;;;;;0.00;0.00;;;;;;;;;;5038721;28;20434;-62
2022/07/29 12:36:34;;;;;;;0.00;0.00;;;;;;;;;;5037516;28;20076;-62
2022/07/29 12:39:00;;;;;;;0.00;0.00;;;;;;;;;;5039750;28;20040;-62
2022/07/29 12:41:27;;;;;;;0.00;0.00;;;;;;;;;;5039316;28;20020;-62
2022/07/29 12:43:55;;;;;;;0.00;0.00;;;;;;;;;;5037096;28;20025;-62
2022/07/29 12:46:20;;;;;;;0.00;0.00;;;;;;;;;;5038680;28;20354;-63
2022/07/29 12:48:49;;;;;;;0.57;0.32;;;;;;;;;;5036991;28;20309;-62
2022/07/29 12:51:16;;;;;;;;;;;;;;;;;;5038396;28;20108;-62
2022/07/29 12:54:01;;;;;;;0.00;0.00;;;;;;;;;;5038761;28;19913;-62
2022/07/29 12:56:26;;;;;;;0.00;0.00;;;;;;;;;;5038545;28;20036;-62
2022/07/29 12:58:51;;;;;;;1.40;0.77;;;;;;;;;;5038226;28;20033;-62
2022/07/29 13:01:17;;;;;;;0.85;0.47;;;;;;;;;;5038218;28;20314;-61
2022/07/29 13:03:51;;;;;;;0.00;0.00;;;;;;;;;;5037907;28;20029;-62
2022/07/29 13:06:33;;;;;;;0.00;0.00;;;;;;;;;;5038096;28;20017;-62
2022/07/29 13:09:18;;;;;;;0.00;0.00;;;;;;;;;;5039550;28;20025;-61
2022/07/29 13:11:44;;;;;;;0.00;0.00;;;;;;;;;;5037073;28;20072;-62
2022/07/29 13:14:11;;;;;;;0.00;0.00;;;;;;;;;;5036909;28;20393;-61
2022/07/29 13:16:37;;;;;;;0.25;0.25;;;;;;;;;;5037609;28;20108;-60
2022/07/29 13:19:11;;;;;;;0.00;0.00;;;;;;;;;;5038258;28;20117;-61
2022/07/29 13:21:37;;;;;;;0.10;0.10;;;;;;;;;;5037768;28;20462;-61
2022/07/29 13:24:02;;;;;;;0.45;0.45;;;;;;;;;;5038426;28;20029;-62
2022/07/29 13:26:28;;;;;;;1.55;1.45;;;;;;;;;;5039432;28;20041;-62
2022/07/29 13:28:54;;;;;;;0.00;0.00;;;;;;;;;;5035829;28;20740;-62
2022/07/29 13:31:19;;;;;;;0.00;0.00;;;;;;;;;;5038712;28;20275;-62
2022/07/29 13:33:44;;;;;;;1.75;1.00;;;;;;;;;;5035617;28;20076;-62
2022/07/29 13:36:10;;;;;;;0.00;0.00;;;;;;;;;;5038677;28;20017;-62
2022/07/29 13:38:35;;;;;;;0.00;0.00;;;;;;;;;;5037808;28;20016;-61
2022/07/29 13:41:00;;;;;;;0.00;0.00;;;;;;;;;;5038526;28;20577;-62
2022/07/29 13:43:25;;;;;;;0.00;0.00;;;;;;;;;;5037986;28;20259;-62
2022/07/29 13:45:51;;;;;;;0.00;0.00;;;;;;;;;;5036748;28;20037;-62
2022/07/29 13:48:17;;;;;;;0.00;0.00;;;;;;;;;;5040621;28;20083;-62
2022/07/29 13:50:42;;;;;;;0.35;0.35;;;;;;;;;;5041302;28;20070;-63
2022/07/29 13:53:07;;;;;;;0.10;0.10;;;;;;;;;;5041968;28;20119;-63
2022/07/29 13:55:32;;;;;;;0.00;0.00;;;;;;;;;;5042078;28;20017;-63
2022/07/29 13:57:57;;;;;;;0.47;0.47;;;;;;;;;;5040635;28;20333;-63
2022/07/29 14:00:23;;;;;;;0.00;0.00;;;;;;;;;;5042290;28;20029;-63
2022/07/29 14:02:48;;;;;;;0.13;0.13;;;;;;;;;;5039974;28;20287;-63
2022/07/29 14:05:14;;;;;;;0.05;0.05;;;;;;;;;;5042470;28;20644;-63
2022/07/29 14:07:39;;;;;;;0.00;0.00;;;;;;;;;;5041417;28;20079;-63
2022/07/29 14:10:04;;;;;;;0.00;0.00;;;;;;;;;;5041334;28;20390;-63
2022/07/29 14:12:30;;;;;;;0.08;0.08;;;;;;;;;;5041236;28;20280;-63
2022/07/29 14:14:55;;;;;;;0.00;0.00;;;;;;;;;;5043668;28;20071;-62
2022/07/29 14:17:20;;;;;;;0.00;0.00;;;;;;;;;;5020742;28;20018;-63
2022/07/29 14:19:46;;;;;;;0.17;0.17;;;;;;;;;;5041663;28;20417;-63
2022/07/29 14:22:11;;;;;;;0.07;0.07;;;;;;;;;;5041136;28;20029;-61
2022/07/29 14:24:36;;;;;;;5.10;0.83;;;;;;;;;;5040205;28;20264;-62
2022/07/29 14:27:02;;;;;;;0.00;0.00;;;;;;;;;;5041003;28;20299;-62
2022/07/29 14:29:27;;;;;;;0.17;0.17;;;;;;;;;;5041161;28;20381;-62
2022/07/29 14:31:52;;;;;;;0.00;0.00;;;;;;;;;;5040849;28;20030;-64
2022/07/29 14:34:18;;;;;;;0.00;0.00;;;;;;;;;;5041799;28;20021;-60
2022/07/29 14:36:43;;;;;;;1.10;1.10;;;;;;;;;;5041827;28;20039;-62
2022/07/29 14:39:08;;;;;;;0.10;0.10;;;;;;;;;;5041314;28;20017;-62
2022/07/29 14:41:34;;;;;;;2.97;0.73;;;;;;;;;;5040953;28;20056;-59
2022/07/29 14:44:00;;;;;;;0.43;0.43;;;;;;;;;;5040475;28;20029;-62
2022/07/29 14:46:25;;;;;;;0.55;0.55;;;;;;;;;;5043588;28;20017;-62
2022/07/29 14:48:51;;;;;;;0.00;0.00;;;;;;;;;;5044336;28;20079;-62